sensor_id;sensor_type;location;lat;lon;timestamp;temperature;humidity
18880;DHT22;9572;52.378;13.404;2022-11-25T00:00:10;3.40;99.90
18880;DHT22;9572;52.378;13.404;2022-11-25T00:02:42;3.40;99.90
18880;DHT22;9572;52.378;13.404;2022-11-25T00:05:09;3.40;99.90
18880;DHT22;9572;52.378;13.404;2022-11-25T00:07:36;3.40;99.90
18880;DHT22;9572;52.378;13.404;2022-11-25T00:10:04;3.40;99.90
18880;DHT22;9572;52.378;13.404;2022-11-25T00:12:31;3.40;99.90
18880;DHT22;9572;52.378;13.404;2022-11-25T00:15:00;3.40;99.90
18880;DHT22;9572;52.378;13.404;2022-11-25T00:17:27;3.40;99.90
18880;DHT22;9572;52.378;13.404;2022-11-25T00:19:53;3.30;99.90
18880;DHT22;9572;52.378;13.404;2022-11-25T00:22:20;3.30;99.90
18880;DHT22;9572;52.378;13.404;2022-11-25T00:24:47;3.30;99.90
18880;DHT22;9572;52.378;13.404;2022-11-25T00:27:14;3.40;99.90
18880;DHT22;9572;52.378;13.404;2022-11-25T00:29:41;3.40;99.90
18880;DHT22;9572;52.378;13.404;2022-11-25T00:32:09;3.40;99.90
18880;DHT22;9572;52.378;13.404;2022-11-25T00:34:36;3.40;99.90
18880;DHT22;9572;52.378;13.404;2022-11-25T00:37:03;3.40;99.90
18880;DHT22;9572;52.378;13.404;2022-11-25T00:39:30;3.40;99.90
18880;DHT22;9572;52.378;13.404;2022-11-25T00:41:56;3.40;99.90
18880;DHT22;9572;52.378;13.404;2022-11-25T00:44:41;3.40;99.90
18880;DHT22;9572;52.378;13.404;2022-11-25T00:47:11;3.40;99.90
18880;DHT22;9572;52.378;13.404;2022-11-25T00:49:39;3.40;99.90
18880;DHT22;9572;52.378;13.404;2022-11-25T00:52:07;3.40;99.90
18880;DHT22;9572;52.378;13.404;2022-11-25T00:54:34;3.40;99.90
18880;DHT22;9572;52.378;13.404;2022-11-25T00:57:01;3.50;99.90
18880;DHT22;9572;52.378;13.404;2022-11-25T00:59:28;3.50;99.90
18880;DHT22;9572;52.378;13.404;2022-11-25T01:01:55;3.50;99.90
18880;DHT22;9572;52.378;13.404;2022-11-25T01:04:23;3.50;99.90
18880;DHT22;9572;52.378;13.404;2022-11-25T01:06:51;3.40;99.90
18880;DHT22;9572;52.378;13.404;2022-11-25T01:09:19;3.50;99.90
18880;DHT22;9572;52.378;13.404;2022-11-25T01:11:48;3.50;99.90
18880;DHT22;9572;52.378;13.404;2022-11-25T01:14:16;3.50;99.90
18880;DHT22;9572;52.378;13.404;2022-11-25T01:16:42;3.50;99.90
18880;DHT22;9572;52.378;13.404;2022-11-25T01:19:10;3.50;99.90
18880;DHT22;9572;52.378;13.404;2022-11-25T01:21:39;3.50;99.90
18880;DHT22;9572;52.378;13.404;2022-11-25T01:24:07;3.50;99.90
18880;DHT22;9572;52.378;13.404;2022-11-25T01:26:34;3.60;99.90
18880;DHT22;9572;52.378;13.404;2022-11-25T01:29:04;3.60;99.90
18880;DHT22;9572;52.378;13.404;2022-11-25T01:31:33;3.50;99.90
18880;DHT22;9572;52.378;13.404;2022-11-25T01:34:02;3.50;99.90
18880;DHT22;9572;52.378;13.404;2022-11-25T01:36:29;3.40;99.90
18880;DHT22;9572;52.378;13.404;2022-11-25T01:38:58;3.30;99.90
18880;DHT22;9572;52.378;13.404;2022-11-25T01:41:28;3.30;99.90
18880;DHT22;9572;52.378;13.404;2022-11-25T01:44:07;3.40;99.90
18880;DHT22;9572;52.378;13.404;2022-11-25T01:46:46;3.40;99.90
18880;DHT22;9572;52.378;13.404;2022-11-25T01:49:18;3.50;99.90
18880;DHT22;9572;52.378;13.404;2022-11-25T01:51:50;3.40;99.90
18880;DHT22;9572;52.378;13.404;2022-11-25T01:54:22;3.50;99.90
18880;DHT22;9572;52.378;13.404;2022-11-25T01:56:53;3.50;99.90
18880;DHT22;9572;52.378;13.404;2022-11-25T01:59:22;3.40;99.90
18880;DHT22;9572;52.378;13.404;2022-11-25T02:01:50;3.40;99.90
18880;DHT22;9572;52.378;13.404;2022-11-25T02:04:19;3.50;99.90
18880;DHT22;9572;52.378;13.404;2022-11-25T02:06:49;3.50;99.90
18880;DHT22;9572;52.378;13.404;2022-11-25T02:09:22;3.50;99.90
18880;DHT22;9572;52.378;13.404;2022-11-25T02:11:50;3.40;99.90
18880;DHT22;9572;52.378;13.404;2022-11-25T02:14:18;3.40;99.90
18880;DHT22;9572;52.378;13.404;2022-11-25T02:16:47;3.30;99.90
18880;DHT22;9572;52.378;13.404;2022-11-25T02:19:21;3.30;99.90
18880;DHT22;9572;52.378;13.404;2022-11-25T02:21:51;3.20;99.90
18880;DHT22;9572;52.378;13.404;2022-11-25T02:24:26;3.20;99.90
18880;DHT22;9572;52.378;13.404;2022-11-25T02:26:57;3.20;99.90
18880;DHT22;9572;52.378;13.404;2022-11-25T02:29:24;3.20;99.90
18880;DHT22;9572;52.378;13.404;2022-11-25T02:31:51;3.20;99.90
18880;DHT22;9572;52.378;13.404;2022-11-25T02:34:18;3.20;99.90
18880;DHT22;9572;52.378;13.404;2022-11-25T02:36:45;3.20;99.90
18880;DHT22;9572;52.378;13.404;2022-11-25T02:39:12;3.20;99.90
18880;DHT22;9572;52.378;13.404;2022-11-25T02:41:43;3.30;99.90
18880;DHT22;9572;52.378;13.404;2022-11-25T02:44:12;3.30;99.90
18880;DHT22;9572;52.378;13.404;2022-11-25T02:46:39;3.30;99.90
18880;DHT22;9572;52.378;13.404;2022-11-25T02:49:07;3.30;99.90
18880;DHT22;9572;52.378;13.404;2022-11-25T02:51:34;3.30;99.90
18880;DHT22;9572;52.378;13.404;2022-11-25T02:54:01;3.30;99.90
18880;DHT22;9572;52.378;13.404;2022-11-25T02:56:30;3.30;99.90
18880;DHT22;9572;52.378;13.404;2022-11-25T02:58:58;3.30;99.90
18880;DHT22;9572;52.378;13.404;2022-11-25T03:01:27;3.40;99.90
18880;DHT22;9572;52.378;13.404;2022-11-25T03:03:55;3.40;99.90
18880;DHT22;9572;52.378;13.404;2022-11-25T03:06:22;3.40;99.90
18880;DHT22;9572;52.378;13.404;2022-11-25T03:08:49;3.40;99.90
18880;DHT22;9572;52.378;13.404;2022-11-25T03:11:16;3.30;99.90
18880;DHT22;9572;52.378;13.404;2022-11-25T03:13:43;3.30;99.90
18880;DHT22;9572;52.378;13.404;2022-11-25T03:16:10;3.40;99.90
18880;DHT22;9572;52.378;13.404;2022-11-25T03:18:38;3.30;99.90
18880;DHT22;9572;52.378;13.404;2022-11-25T03:21:05;3.40;99.90
18880;DHT22;9572;52.378;13.404;2022-11-25T03:23:32;3.40;99.90
18880;DHT22;9572;52.378;13.404;2022-11-25T03:26:04;3.40;99.90
18880;DHT22;9572;52.378;13.404;2022-11-25T03:28:31;3.40;99.90
18880;DHT22;9572;52.378;13.404;2022-11-25T03:30:58;3.40;99.90
18880;DHT22;9572;52.378;13.404;2022-11-25T03:33:25;3.40;99.90
18880;DHT22;9572;52.378;13.404;2022-11-25T03:35:53;3.30;99.90
18880;DHT22;9572;52.378;13.404;2022-11-25T03:38:20;3.40;99.90
18880;DHT22;9572;52.378;13.404;2022-11-25T03:40:47;3.50;99.90
18880;DHT22;9572;52.378;13.404;2022-11-25T03:43:14;3.40;99.90
18880;DHT22;9572;52.378;13.404;2022-11-25T03:45:41;3.50;99.90
18880;DHT22;9572;52.378;13.404;2022-11-25T03:48:08;3.50;99.90
18880;DHT22;9572;52.378;13.404;2022-11-25T03:50:35;3.50;99.90
18880;DHT22;9572;52.378;13.404;2022-11-25T03:53:03;3.40;99.90
18880;DHT22;9572;52.378;13.404;2022-11-25T03:55:30;3.50;99.90
18880;DHT22;9572;52.378;13.404;2022-11-25T03:57:57;3.50;99.90
18880;DHT22;9572;52.378;13.404;2022-11-25T04:00:24;3.40;99.90
18880;DHT22;9572;52.378;13.404;2022-11-25T04:02:51;3.50;99.90
18880;DHT22;9572;52.378;13.404;2022-11-25T04:05:18;3.50;99.90
18880;DHT22;9572;52.378;13.404;2022-11-25T04:07:45;3.50;99.90
18880;DHT22;9572;52.378;13.404;2022-11-25T04:10:14;3.60;99.90
18880;DHT22;9572;52.378;13.404;2022-11-25T04:12:41;3.70;99.90
18880;DHT22;9572;52.378;13.404;2022-11-25T04:15:13;3.70;99.90
18880;DHT22;9572;52.378;13.404;2022-11-25T04:17:40;3.70;99.90
18880;DHT22;9572;52.378;13.404;2022-11-25T04:20:08;3.70;99.90
18880;DHT22;9572;52.378;13.404;2022-11-25T04:22:35;3.60;99.90
18880;DHT22;9572;52.378;13.404;2022-11-25T04:25:03;3.60;99.90
18880;DHT22;9572;52.378;13.404;2022-11-25T04:27:31;3.60;99.90
18880;DHT22;9572;52.378;13.404;2022-11-25T04:29:58;3.60;99.90
18880;DHT22;9572;52.378;13.404;2022-11-25T04:32:25;3.60;99.90
18880;DHT22;9572;52.378;13.404;2022-11-25T04:34:52;3.60;99.90
18880;DHT22;9572;52.378;13.404;2022-11-25T04:37:20;3.60;99.90
18880;DHT22;9572;52.378;13.404;2022-11-25T04:39:47;3.60;99.90
18880;DHT22;9572;52.378;13.404;2022-11-25T04:42:14;3.60;99.90
18880;DHT22;9572;52.378;13.404;2022-11-25T04:45:07;3.70;99.90
18880;DHT22;9572;52.378;13.404;2022-11-25T04:47:34;3.60;99.90
18880;DHT22;9572;52.378;13.404;2022-11-25T04:50:02;3.70;99.90
18880;DHT22;9572;52.378;13.404;2022-11-25T04:52:29;3.70;99.90
18880;DHT22;9572;52.378;13.404;2022-11-25T04:54:56;3.70;99.90
18880;DHT22;9572;52.378;13.404;2022-11-25T04:57:23;3.70;99.90
18880;DHT22;9572;52.378;13.404;2022-11-25T04:59:50;3.70;99.90
18880;DHT22;9572;52.378;13.404;2022-11-25T05:02:19;3.60;99.90
18880;DHT22;9572;52.378;13.404;2022-11-25T05:04:47;3.70;99.90
18880;DHT22;9572;52.378;13.404;2022-11-25T05:07:16;3.70;99.90
18880;DHT22;9572;52.378;13.404;2022-11-25T05:09:45;3.70;99.90
18880;DHT22;9572;52.378;13.404;2022-11-25T05:12:13;3.80;99.90
18880;DHT22;9572;52.378;13.404;2022-11-25T05:14:41;3.70;99.90
18880;DHT22;9572;52.378;13.404;2022-11-25T05:17:12;3.70;99.90
18880;DHT22;9572;52.378;13.404;2022-11-25T05:19:41;3.70;99.90
18880;DHT22;9572;52.378;13.404;2022-11-25T05:22:09;3.80;99.90
18880;DHT22;9572;52.378;13.404;2022-11-25T05:24:36;3.80;99.90
18880;DHT22;9572;52.378;13.404;2022-11-25T05:27:03;3.80;99.90
18880;DHT22;9572;52.378;13.404;2022-11-25T05:29:31;3.80;99.90
18880;DHT22;9572;52.378;13.404;2022-11-25T05:31:57;3.80;99.90
18880;DHT22;9572;52.378;13.404;2022-11-25T05:34:24;3.90;99.90
18880;DHT22;9572;52.378;13.404;2022-11-25T05:36:53;3.90;99.90
18880;DHT22;9572;52.378;13.404;2022-11-25T05:39:20;3.90;99.90
18880;DHT22;9572;52.378;13.404;2022-11-25T05:41:48;3.90;99.90
18880;DHT22;9572;52.378;13.404;2022-11-25T05:44:15;3.90;99.90
18880;DHT22;9572;52.378;13.404;2022-11-25T05:46:43;3.90;99.90
18880;DHT22;9572;52.378;13.404;2022-11-25T05:49:11;3.90;99.90
18880;DHT22;9572;52.378;13.404;2022-11-25T05:51:38;3.80;99.90
18880;DHT22;9572;52.378;13.404;2022-11-25T05:54:06;3.80;99.90
18880;DHT22;9572;52.378;13.404;2022-11-25T05:56:33;3.90;99.90
18880;DHT22;9572;52.378;13.404;2022-11-25T05:59:02;3.90;99.90
18880;DHT22;9572;52.378;13.404;2022-11-25T06:01:29;3.90;99.90
18880;DHT22;9572;52.378;13.404;2022-11-25T06:03:58;3.80;99.90
18880;DHT22;9572;52.378;13.404;2022-11-25T06:06:26;3.90;99.90
18880;DHT22;9572;52.378;13.404;2022-11-25T06:08:53;3.90;99.90
18880;DHT22;9572;52.378;13.404;2022-11-25T06:11:21;3.90;99.90
18880;DHT22;9572;52.378;13.404;2022-11-25T06:13:50;3.90;99.90
18880;DHT22;9572;52.378;13.404;2022-11-25T06:16:19;4.00;99.90
18880;DHT22;9572;52.378;13.404;2022-11-25T06:18:47;3.90;99.90
18880;DHT22;9572;52.378;13.404;2022-11-25T06:21:14;3.80;99.90
18880;DHT22;9572;52.378;13.404;2022-11-25T06:23:41;3.70;99.90
18880;DHT22;9572;52.378;13.404;2022-11-25T06:26:12;3.70;99.90
18880;DHT22;9572;52.378;13.404;2022-11-25T06:28:41;3.60;99.90
18880;DHT22;9572;52.378;13.404;2022-11-25T06:31:10;3.50;99.90
18880;DHT22;9572;52.378;13.404;2022-11-25T06:33:38;3.50;99.90
18880;DHT22;9572;52.378;13.404;2022-11-25T06:36:06;3.50;99.90
18880;DHT22;9572;52.378;13.404;2022-11-25T06:38:34;3.30;99.90
18880;DHT22;9572;52.378;13.404;2022-11-25T06:41:03;3.30;99.90
18880;DHT22;9572;52.378;13.404;2022-11-25T06:43:31;3.30;99.90
18880;DHT22;9572;52.378;13.404;2022-11-25T06:46:04;3.20;99.90
18880;DHT22;9572;52.378;13.404;2022-11-25T06:48:31;3.20;99.90
18880;DHT22;9572;52.378;13.404;2022-11-25T06:51:00;3.20;99.90
18880;DHT22;9572;52.378;13.404;2022-11-25T06:53:27;3.20;99.90
18880;DHT22;9572;52.378;13.404;2022-11-25T06:56:04;3.10;99.90
18880;DHT22;9572;52.378;13.404;2022-11-25T06:58:32;3.10;99.90
18880;DHT22;9572;52.378;13.404;2022-11-25T07:01:01;3.10;99.90
18880;DHT22;9572;52.378;13.404;2022-11-25T07:03:30;3.00;99.90
18880;DHT22;9572;52.378;13.404;2022-11-25T07:05:57;3.00;99.90
18880;DHT22;9572;52.378;13.404;2022-11-25T07:08:24;2.90;99.90
18880;DHT22;9572;52.378;13.404;2022-11-25T07:10:51;2.90;99.90
18880;DHT22;9572;52.378;13.404;2022-11-25T07:13:18;2.80;99.90
18880;DHT22;9572;52.378;13.404;2022-11-25T07:15:45;2.80;99.90
18880;DHT22;9572;52.378;13.404;2022-11-25T07:18:12;2.80;99.90
18880;DHT22;9572;52.378;13.404;2022-11-25T07:20:40;2.80;99.90
18880;DHT22;9572;52.378;13.404;2022-11-25T07:23:07;2.80;99.90
18880;DHT22;9572;52.378;13.404;2022-11-25T07:25:34;2.80;99.90
18880;DHT22;9572;52.378;13.404;2022-11-25T07:28:01;2.90;99.90
18880;DHT22;9572;52.378;13.404;2022-11-25T07:30:28;2.90;99.90
18880;DHT22;9572;52.378;13.404;2022-11-25T07:32:55;2.90;99.90
18880;DHT22;9572;52.378;13.404;2022-11-25T07:35:22;2.90;99.90
18880;DHT22;9572;52.378;13.404;2022-11-25T07:37:50;2.80;99.90
18880;DHT22;9572;52.378;13.404;2022-11-25T07:40:17;2.80;99.90
18880;DHT22;9572;52.378;13.404;2022-11-25T07:42:44;2.80;99.90
18880;DHT22;9572;52.378;13.404;2022-11-25T07:45:11;2.80;99.90
18880;DHT22;9572;52.378;13.404;2022-11-25T07:47:38;2.80;99.90
18880;DHT22;9572;52.378;13.404;2022-11-25T07:50:06;2.90;99.90
18880;DHT22;9572;52.378;13.404;2022-11-25T07:52:35;2.80;99.90
18880;DHT22;9572;52.378;13.404;2022-11-25T07:55:04;2.80;99.90
18880;DHT22;9572;52.378;13.404;2022-11-25T07:57:31;2.80;99.90
18880;DHT22;9572;52.378;13.404;2022-11-25T07:59:58;2.90;99.90
18880;DHT22;9572;52.378;13.404;2022-11-25T08:02:25;3.00;99.90
18880;DHT22;9572;52.378;13.404;2022-11-25T08:04:52;3.10;99.90
18880;DHT22;9572;52.378;13.404;2022-11-25T08:07:19;3.20;99.90
18880;DHT22;9572;52.378;13.404;2022-11-25T08:09:46;3.30;99.90
18880;DHT22;9572;52.378;13.404;2022-11-25T08:12:14;3.30;99.90
18880;DHT22;9572;52.378;13.404;2022-11-25T08:14:41;3.40;99.90
18880;DHT22;9572;52.378;13.404;2022-11-25T08:17:08;3.50;99.90
18880;DHT22;9572;52.378;13.404;2022-11-25T08:19:36;3.60;99.90
18880;DHT22;9572;52.378;13.404;2022-11-25T08:22:05;3.70;99.90
18880;DHT22;9572;52.378;13.404;2022-11-25T08:24:32;3.70;99.90
18880;DHT22;9572;52.378;13.404;2022-11-25T08:26:59;3.70;99.90
18880;DHT22;9572;52.378;13.404;2022-11-25T08:29:27;3.80;99.90
18880;DHT22;9572;52.378;13.404;2022-11-25T08:31:54;3.90;99.90
18880;DHT22;9572;52.378;13.404;2022-11-25T08:34:23;4.00;99.90
18880;DHT22;9572;52.378;13.404;2022-11-25T08:36:50;4.00;99.90
18880;DHT22;9572;52.378;13.404;2022-11-25T08:39:19;4.00;99.90
18880;DHT22;9572;52.378;13.404;2022-11-25T08:41:46;4.10;99.90
18880;DHT22;9572;52.378;13.404;2022-11-25T08:44:13;4.10;99.90
18880;DHT22;9572;52.378;13.404;2022-11-25T08:46:41;4.10;99.90
18880;DHT22;9572;52.378;13.404;2022-11-25T08:49:10;4.20;99.90
18880;DHT22;9572;52.378;13.404;2022-11-25T08:51:38;4.20;99.90
18880;DHT22;9572;52.378;13.404;2022-11-25T08:54:06;4.30;99.90
18880;DHT22;9572;52.378;13.404;2022-11-25T08:56:34;4.20;99.90
18880;DHT22;9572;52.378;13.404;2022-11-25T08:59:01;4.30;99.90
18880;DHT22;9572;52.378;13.404;2022-11-25T09:01:28;4.30;99.90
18880;DHT22;9572;52.378;13.404;2022-11-25T09:03:56;4.40;99.90
18880;DHT22;9572;52.378;13.404;2022-11-25T09:06:25;4.40;99.90
18880;DHT22;9572;52.378;13.404;2022-11-25T09:08:54;4.50;99.90
18880;DHT22;9572;52.378;13.404;2022-11-25T09:11:22;4.50;99.90
18880;DHT22;9572;52.378;13.404;2022-11-25T09:13:49;4.60;99.90
18880;DHT22;9572;52.378;13.404;2022-11-25T09:16:16;4.60;99.90
18880;DHT22;9572;52.378;13.404;2022-11-25T09:18:43;4.70;99.90
18880;DHT22;9572;52.378;13.404;2022-11-25T09:21:14;4.70;99.90
18880;DHT22;9572;52.378;13.404;2022-11-25T09:23:42;4.80;99.90
18880;DHT22;9572;52.378;13.404;2022-11-25T09:26:20;4.90;99.90
18880;DHT22;9572;52.378;13.404;2022-11-25T09:28:47;4.90;99.90
18880;DHT22;9572;52.378;13.404;2022-11-25T09:31:14;4.90;99.90
18880;DHT22;9572;52.378;13.404;2022-11-25T09:33:41;4.90;99.90
18880;DHT22;9572;52.378;13.404;2022-11-25T09:36:10;4.90;99.90
18880;DHT22;9572;52.378;13.404;2022-11-25T09:38:37;5.00;99.90
18880;DHT22;9572;52.378;13.404;2022-11-25T09:41:09;5.00;99.90
18880;DHT22;9572;52.378;13.404;2022-11-25T09:43:44;5.10;99.90
18880;DHT22;9572;52.378;13.404;2022-11-25T09:46:38;5.20;99.90
18880;DHT22;9572;52.378;13.404;2022-11-25T09:49:26;5.20;99.90
18880;DHT22;9572;52.378;13.404;2022-11-25T09:52:02;5.20;99.90
18880;DHT22;9572;52.378;13.404;2022-11-25T09:54:36;5.20;99.90
18880;DHT22;9572;52.378;13.404;2022-11-25T09:57:11;5.20;99.90
18880;DHT22;9572;52.378;13.404;2022-11-25T09:59:46;5.30;99.90
18880;DHT22;9572;52.378;13.404;2022-11-25T10:02:19;5.40;99.90
18880;DHT22;9572;52.378;13.404;2022-11-25T10:04:51;5.40;99.90
18880;DHT22;9572;52.378;13.404;2022-11-25T10:07:25;5.40;99.90
18880;DHT22;9572;52.378;13.404;2022-11-25T10:09:53;5.30;99.90
18880;DHT22;9572;52.378;13.404;2022-11-25T10:12:24;5.30;99.90
18880;DHT22;9572;52.378;13.404;2022-11-25T10:14:57;5.30;99.90
18880;DHT22;9572;52.378;13.404;2022-11-25T10:17:32;5.30;99.90
18880;DHT22;9572;52.378;13.404;2022-11-25T10:20:05;5.30;99.90
18880;DHT22;9572;52.378;13.404;2022-11-25T10:22:40;5.40;99.90
18880;DHT22;9572;52.378;13.404;2022-11-25T10:25:14;5.50;99.90
18880;DHT22;9572;52.378;13.404;2022-11-25T10:27:44;5.60;99.90
18880;DHT22;9572;52.378;13.404;2022-11-25T10:30:16;5.70;99.90
18880;DHT22;9572;52.378;13.404;2022-11-25T10:32:48;5.90;99.90
18880;DHT22;9572;52.378;13.404;2022-11-25T10:35:25;6.10;99.90
18880;DHT22;9572;52.378;13.404;2022-11-25T10:37:57;6.20;99.90
18880;DHT22;9572;52.378;13.404;2022-11-25T10:40:24;6.10;99.90
18880;DHT22;9572;52.378;13.404;2022-11-25T10:42:51;6.10;99.90
18880;DHT22;9572;52.378;13.404;2022-11-25T10:45:23;6.10;99.90
18880;DHT22;9572;52.378;13.404;2022-11-25T10:48:11;6.10;99.90
18880;DHT22;9572;52.378;13.404;2022-11-25T10:50:57;6.10;99.90
18880;DHT22;9572;52.378;13.404;2022-11-25T10:53:28;6.10;99.90
18880;DHT22;9572;52.378;13.404;2022-11-25T10:56:00;6.20;99.90
18880;DHT22;9572;52.378;13.404;2022-11-25T10:58:32;6.30;99.90
18880;DHT22;9572;52.378;13.404;2022-11-25T11:01:23;6.30;99.90
18880;DHT22;9572;52.378;13.404;2022-11-25T11:03:52;6.20;99.90
18880;DHT22;9572;52.378;13.404;2022-11-25T11:06:31;6.20;99.90
18880;DHT22;9572;52.378;13.404;2022-11-25T11:09:00;6.20;99.90
18880;DHT22;9572;52.378;13.404;2022-11-25T11:11:27;6.20;99.90
18880;DHT22;9572;52.378;13.404;2022-11-25T11:14:02;6.20;99.90
18880;DHT22;9572;52.378;13.404;2022-11-25T11:16:39;6.30;99.90
18880;DHT22;9572;52.378;13.404;2022-11-25T11:19:20;6.40;99.90
18880;DHT22;9572;52.378;13.404;2022-11-25T11:21:48;6.60;99.90
18880;DHT22;9572;52.378;13.404;2022-11-25T11:24:26;6.50;99.90
18880;DHT22;9572;52.378;13.404;2022-11-25T11:27:06;6.40;99.90
18880;DHT22;9572;52.378;13.404;2022-11-25T11:29:33;6.40;99.90
18880;DHT22;9572;52.378;13.404;2022-11-25T11:32:02;6.40;99.90
18880;DHT22;9572;52.378;13.404;2022-11-25T11:34:39;6.40;99.90
18880;DHT22;9572;52.378;13.404;2022-11-25T11:37:25;6.40;99.90
18880;DHT22;9572;52.378;13.404;2022-11-25T11:40:20;6.40;99.90
18880;DHT22;9572;52.378;13.404;2022-11-25T11:43:00;6.50;99.90
18880;DHT22;9572;52.378;13.404;2022-11-25T11:45:40;6.60;99.90
18880;DHT22;9572;52.378;13.404;2022-11-25T11:48:20;6.60;99.90
18880;DHT22;9572;52.378;13.404;2022-11-25T11:50:54;6.70;99.90
18880;DHT22;9572;52.378;13.404;2022-11-25T11:53:29;6.80;99.90
18880;DHT22;9572;52.378;13.404;2022-11-25T11:56:04;6.80;99.90
18880;DHT22;9572;52.378;13.404;2022-11-25T11:58:44;6.90;99.90
18880;DHT22;9572;52.378;13.404;2022-11-25T12:01:24;7.00;99.90
18880;DHT22;9572;52.378;13.404;2022-11-25T12:03:57;7.00;99.90
18880;DHT22;9572;52.378;13.404;2022-11-25T12:06:26;7.00;99.90
18880;DHT22;9572;52.378;13.404;2022-11-25T12:08:57;7.00;99.90
18880;DHT22;9572;52.378;13.404;2022-11-25T12:11:31;7.00;99.90
18880;DHT22;9572;52.378;13.404;2022-11-25T12:14:03;7.00;99.90
18880;DHT22;9572;52.378;13.404;2022-11-25T12:16:35;7.00;99.90
18880;DHT22;9572;52.378;13.404;2022-11-25T12:19:10;7.10;99.90
18880;DHT22;9572;52.378;13.404;2022-11-25T12:21:48;7.00;99.90
18880;DHT22;9572;52.378;13.404;2022-11-25T12:24:22;7.00;99.90
18880;DHT22;9572;52.378;13.404;2022-11-25T12:26:57;7.00;99.90
18880;DHT22;9572;52.378;13.404;2022-11-25T12:29:32;7.00;99.90
18880;DHT22;9572;52.378;13.404;2022-11-25T12:32:28;6.90;99.90
18880;DHT22;9572;52.378;13.404;2022-11-25T12:35:02;6.90;99.90
18880;DHT22;9572;52.378;13.404;2022-11-25T12:37:35;7.00;99.90
18880;DHT22;9572;52.378;13.404;2022-11-25T12:40:10;6.90;99.90
18880;DHT22;9572;52.378;13.404;2022-11-25T12:42:41;6.90;99.90
18880;DHT22;9572;52.378;13.404;2022-11-25T12:45:14;6.80;99.90
18880;DHT22;9572;52.378;13.404;2022-11-25T12:47:43;6.80;99.90
18880;DHT22;9572;52.378;13.404;2022-11-25T12:50:16;6.90;99.90
18880;DHT22;9572;52.378;13.404;2022-11-25T12:52:51;6.80;99.90
18880;DHT22;9572;52.378;13.404;2022-11-25T12:55:20;6.90;99.90
18880;DHT22;9572;52.378;13.404;2022-11-25T13:04:16;7.00;99.90
18880;DHT22;9572;52.378;13.404;2022-11-25T13:07:04;7.10;99.90
18880;DHT22;9572;52.378;13.404;2022-11-25T13:10:05;7.10;99.90
18880;DHT22;9572;52.378;13.404;2022-11-25T13:12:43;7.10;99.90
18880;DHT22;9572;52.378;13.404;2022-11-25T13:15:24;7.10;99.90
18880;DHT22;9572;52.378;13.404;2022-11-25T13:17:55;7.10;99.90
18880;DHT22;9572;52.378;13.404;2022-11-25T13:20:41;7.10;99.90
18880;DHT22;9572;52.378;13.404;2022-11-25T13:23:24;7.10;99.90
18880;DHT22;9572;52.378;13.404;2022-11-25T13:25:52;7.10;99.90
18880;DHT22;9572;52.378;13.404;2022-11-25T13:28:31;7.10;99.90
18880;DHT22;9572;52.378;13.404;2022-11-25T13:31:18;7.00;99.90
18880;DHT22;9572;52.378;13.404;2022-11-25T13:34:15;6.90;99.90
18880;DHT22;9572;52.378;13.404;2022-11-25T13:36:49;7.00;99.90
18880;DHT22;9572;52.378;13.404;2022-11-25T13:39:17;7.00;99.90
18880;DHT22;9572;52.378;13.404;2022-11-25T13:41:46;7.00;99.90
18880;DHT22;9572;52.378;13.404;2022-11-25T13:44:23;7.00;99.90
18880;DHT22;9572;52.378;13.404;2022-11-25T13:46:55;7.00;99.90
18880;DHT22;9572;52.378;13.404;2022-11-25T13:49:34;7.00;99.90
18880;DHT22;9572;52.378;13.404;2022-11-25T13:52:27;7.00;99.90
18880;DHT22;9572;52.378;13.404;2022-11-25T13:54:56;7.00;99.90
18880;DHT22;9572;52.378;13.404;2022-11-25T13:57:25;7.00;99.90
18880;DHT22;9572;52.378;13.404;2022-11-25T13:59:57;7.00;99.90
18880;DHT22;9572;52.378;13.404;2022-11-25T14:02:40;7.00;99.90
18880;DHT22;9572;52.378;13.404;2022-11-25T14:05:49;6.90;99.90
18880;DHT22;9572;52.378;13.404;2022-11-25T14:08:25;6.80;99.90
18880;DHT22;9572;52.378;13.404;2022-11-25T14:11:14;6.70;99.90
18880;DHT22;9572;52.378;13.404;2022-11-25T14:14:01;6.60;99.90
18880;DHT22;9572;52.378;13.404;2022-11-25T14:16:42;6.60;99.90
18880;DHT22;9572;52.378;13.404;2022-11-25T14:19:33;6.50;99.90
18880;DHT22;9572;52.378;13.404;2022-11-25T14:22:15;6.40;99.90
18880;DHT22;9572;52.378;13.404;2022-11-25T14:24:49;6.40;99.90
18880;DHT22;9572;52.378;13.404;2022-11-25T14:27:21;6.40;99.90
18880;DHT22;9572;52.378;13.404;2022-11-25T14:29:52;6.40;99.90
18880;DHT22;9572;52.378;13.404;2022-11-25T14:32:25;6.40;99.90
18880;DHT22;9572;52.378;13.404;2022-11-25T14:34:58;6.40;99.90
18880;DHT22;9572;52.378;13.404;2022-11-25T14:37:33;6.40;99.90
18880;DHT22;9572;52.378;13.404;2022-11-25T14:40:06;6.20;99.90
18880;DHT22;9572;52.378;13.404;2022-11-25T14:42:37;6.20;99.90
18880;DHT22;9572;52.378;13.404;2022-11-25T14:45:19;6.20;99.90
18880;DHT22;9572;52.378;13.404;2022-11-25T14:47:46;6.20;99.90
18880;DHT22;9572;52.378;13.404;2022-11-25T14:50:15;6.20;99.90
18880;DHT22;9572;52.378;13.404;2022-11-25T14:52:43;6.20;99.90
18880;DHT22;9572;52.378;13.404;2022-11-25T14:55:14;6.20;99.90
18880;DHT22;9572;52.378;13.404;2022-11-25T14:57:49;6.20;99.90
18880;DHT22;9572;52.378;13.404;2022-11-25T15:00:18;6.10;99.90
18880;DHT22;9572;52.378;13.404;2022-11-25T15:02:52;6.10;99.90
18880;DHT22;9572;52.378;13.404;2022-11-25T15:05:22;6.10;99.90
18880;DHT22;9572;52.378;13.404;2022-11-25T15:07:59;6.00;99.90
18880;DHT22;9572;52.378;13.404;2022-11-25T15:10:48;6.00;99.90
18880;DHT22;9572;52.378;13.404;2022-11-25T15:13:25;6.10;99.90
18880;DHT22;9572;52.378;13.404;2022-11-25T15:15:53;6.00;99.90
18880;DHT22;9572;52.378;13.404;2022-11-25T15:18:22;6.10;99.90
18880;DHT22;9572;52.378;13.404;2022-11-25T15:20:55;6.10;99.90
18880;DHT22;9572;52.378;13.404;2022-11-25T15:23:26;6.10;99.90
18880;DHT22;9572;52.378;13.404;2022-11-25T15:25:56;6.10;99.90
18880;DHT22;9572;52.378;13.404;2022-11-25T15:28:23;6.20;99.90
18880;DHT22;9572;52.378;13.404;2022-11-25T15:30:57;6.10;99.90
18880;DHT22;9572;52.378;13.404;2022-11-25T15:33:25;6.10;99.90
18880;DHT22;9572;52.378;13.404;2022-11-25T15:35:54;6.10;99.90
18880;DHT22;9572;52.378;13.404;2022-11-25T15:38:35;6.20;99.90
18880;DHT22;9572;52.378;13.404;2022-11-25T15:41:02;6.10;99.90
18880;DHT22;9572;52.378;13.404;2022-11-25T15:43:30;6.10;99.90
18880;DHT22;9572;52.378;13.404;2022-11-25T15:46:00;6.10;99.90
18880;DHT22;9572;52.378;13.404;2022-11-25T15:48:29;6.10;99.90
18880;DHT22;9572;52.378;13.404;2022-11-25T15:51:02;6.20;99.90
18880;DHT22;9572;52.378;13.404;2022-11-25T15:53:31;6.20;99.90
18880;DHT22;9572;52.378;13.404;2022-11-25T15:56:03;6.20;99.90
18880;DHT22;9572;52.378;13.404;2022-11-25T15:58:31;6.20;99.90
18880;DHT22;9572;52.378;13.404;2022-11-25T16:01:02;6.20;99.90
18880;DHT22;9572;52.378;13.404;2022-11-25T16:03:30;6.20;99.90
18880;DHT22;9572;52.378;13.404;2022-11-25T16:06:00;6.20;99.90
18880;DHT22;9572;52.378;13.404;2022-11-25T16:08:32;6.20;99.90
18880;DHT22;9572;52.378;13.404;2022-11-25T16:11:11;6.20;99.90
18880;DHT22;9572;52.378;13.404;2022-11-25T16:13:40;6.20;99.90